createdAt,value
2019-03-10T00:00:42.021Z,6.30
2019-03-10T00:03:10.418Z,6.20
2019-03-10T00:05:38.861Z,6.20
2019-03-10T00:08:08.149Z,6.20
2019-03-10T00:10:36.729Z,6.20
2019-03-10T00:13:05.242Z,6.20
2019-03-10T00:15:33.714Z,6.20
2019-03-10T00:18:02.143Z,6.10
2019-03-10T00:20:30.612Z,6.10
2019-03-10T00:22:58.936Z,6.10
2019-03-10T00:25:27.403Z,6.20
2019-03-10T00:27:55.892Z,6.20
2019-03-10T00:30:24.362Z,6.10
2019-03-10T00:32:52.866Z,6.10
2019-03-10T00:35:21.289Z,6.10
2019-03-10T00:37:50.057Z,6.00
2019-03-10T00:40:33.944Z,6.00
2019-03-10T00:43:28.266Z,6.10
2019-03-10T00:46:22.848Z,6.00
2019-03-10T00:49:29.322Z,6.00
2019-03-10T00:52:06.446Z,6.00
2019-03-10T00:54:34.757Z,6.00
2019-03-10T00:57:03.242Z,6.00
2019-03-10T00:59:32.225Z,6.10
2019-03-10T01:02:00.717Z,6.10
2019-03-10T01:04:30.505Z,6.10
2019-03-10T01:07:01.395Z,6.10
2019-03-10T01:09:29.001Z,6.10
2019-03-10T01:11:57.491Z,6.10
2019-03-10T01:14:25.942Z,6.10
2019-03-10T01:16:54.537Z,6.10
2019-03-10T01:19:23.314Z,6.20
2019-03-10T01:21:51.756Z,6.10
2019-03-10T01:24:20.400Z,6.20
2019-03-10T01:26:48.826Z,6.10
2019-03-10T01:29:17.403Z,6.10
2019-03-10T01:32:13.225Z,6.10
2019-03-10T01:34:53.648Z,6.10
2019-03-10T01:37:22.192Z,6.00
2019-03-10T01:39:50.610Z,6.00
2019-03-10T01:42:18.988Z,6.00
2019-03-10T01:44:47.480Z,6.00
2019-03-10T01:47:15.985Z,6.00
2019-03-10T01:49:44.359Z,5.90
2019-03-10T01:52:12.740Z,5.90
2019-03-10T01:54:41.219Z,5.90
2019-03-10T01:57:09.645Z,5.90
2019-03-10T01:59:38.192Z,5.90
2019-03-10T02:02:06.549Z,5.90
2019-03-10T02:04:35.063Z,5.90
2019-03-10T02:07:03.495Z,6.00
2019-03-10T02:09:31.970Z,6.00
2019-03-10T02:12:00.467Z,6.00
2019-03-10T02:14:28.830Z,6.00
2019-03-10T02:16:57.312Z,5.90
2019-03-10T02:19:25.944Z,5.90
2019-03-10T02:21:54.457Z,5.90
2019-03-10T02:24:24.041Z,5.90
2019-03-10T02:26:52.698Z,5.90
2019-03-10T02:29:21.255Z,5.90
2019-03-10T02:31:49.969Z,5.80
2019-03-10T02:34:18.593Z,5.80
2019-03-10T02:36:47.238Z,5.80
2019-03-10T02:39:15.752Z,5.70
2019-03-10T02:41:44.226Z,5.70
2019-03-10T02:44:12.903Z,5.70
2019-03-10T02:46:41.595Z,5.70
2019-03-10T02:49:10.054Z,5.70
2019-03-10T02:51:38.618Z,5.70
2019-03-10T02:54:07.057Z,5.70
2019-03-10T02:56:35.410Z,5.60
2019-03-10T02:59:03.866Z,5.60
2019-03-10T03:01:32.236Z,5.60
2019-03-10T03:04:00.651Z,5.60
2019-03-10T03:06:29.233Z,5.60
2019-03-10T03:08:57.613Z,5.60
2019-03-10T03:11:26.007Z,5.60
2019-03-10T03:13:54.477Z,5.50
2019-03-10T03:16:22.866Z,5.50
2019-03-10T03:18:51.253Z,5.40
2019-03-10T03:21:19.740Z,5.50
2019-03-10T03:23:48.124Z,5.50
2019-03-10T03:26:16.565Z,5.40
2019-03-10T03:28:45.072Z,5.50
2019-03-10T03:31:13.648Z,5.50
2019-03-10T03:33:42.284Z,5.40
2019-03-10T03:36:22.806Z,5.40
2019-03-10T03:38:54.468Z,5.40
2019-03-10T03:41:26.732Z,5.40
2019-03-10T03:43:55.156Z,5.40
2019-03-10T03:46:23.574Z,5.40
2019-03-10T03:48:51.918Z,5.40
2019-03-10T03:51:20.387Z,5.40
2019-03-10T03:53:48.842Z,5.40
2019-03-10T03:56:17.287Z,5.40
2019-03-10T03:58:45.844Z,5.50
2019-03-10T04:01:17.232Z,5.50
2019-03-10T04:03:48.693Z,5.50
2019-03-10T04:06:17.111Z,5.50
2019-03-10T04:08:45.593Z,5.50
2019-03-10T04:11:14.093Z,5.50
2019-03-10T04:13:42.452Z,5.50
2019-03-10T04:16:10.835Z,5.40
2019-03-10T04:18:41.334Z,5.40
2019-03-10T04:21:09.726Z,5.40
2019-03-10T04:23:38.188Z,5.50
2019-03-10T04:26:06.720Z,5.50
2019-03-10T04:28:36.909Z,5.50
2019-03-10T04:31:04.770Z,5.50
2019-03-10T04:33:33.315Z,5.60
2019-03-10T04:36:01.847Z,5.50
2019-03-10T04:38:31.691Z,5.60
2019-03-10T04:41:00.087Z,5.60
2019-03-10T04:43:28.613Z,5.60
2019-03-10T04:45:57.042Z,5.60
2019-03-10T04:48:25.710Z,5.60
2019-03-10T04:50:54.113Z,5.60
2019-03-10T04:53:22.598Z,5.60
2019-03-10T04:55:52.846Z,5.60
2019-03-10T04:58:22.248Z,5.60
2019-03-10T05:00:52.380Z,5.70
2019-03-10T05:03:20.147Z,5.70
2019-03-10T05:05:48.584Z,5.70
2019-03-10T05:08:16.992Z,5.70
2019-03-10T05:10:45.404Z,5.70
2019-03-10T05:13:13.923Z,5.70
2019-03-10T05:15:42.368Z,5.70
2019-03-10T05:18:11.012Z,5.80
2019-03-10T05:20:39.492Z,5.80
2019-03-10T05:23:28.478Z,5.90
2019-03-10T05:25:56.969Z,5.80
2019-03-10T05:28:25.440Z,5.80
2019-03-10T05:30:56.867Z,5.80
2019-03-10T05:33:25.471Z,5.90
2019-03-10T05:35:53.954Z,5.90
2019-03-10T05:38:22.483Z,5.90
2019-03-10T05:40:51.006Z,5.90
2019-03-10T05:43:19.577Z,5.90
2019-03-10T05:45:48.109Z,5.90
2019-03-10T05:48:16.775Z,6.00
2019-03-10T05:50:45.217Z,5.90
2019-03-10T05:53:13.614Z,5.90
2019-03-10T05:55:42.204Z,5.90
2019-03-10T05:58:10.702Z,5.90
2019-03-10T06:00:42.992Z,5.90
2019-03-10T06:03:09.339Z,5.90
2019-03-10T06:05:37.850Z,5.90
2019-03-10T06:08:06.283Z,5.90
2019-03-10T06:10:34.735Z,5.90
2019-03-10T06:13:03.189Z,5.90
2019-03-10T06:15:31.734Z,6.00
2019-03-10T06:18:12.527Z,6.00
2019-03-10T06:20:29.664Z,6.00
2019-03-10T06:22:58.213Z,6.10
2019-03-10T06:25:26.618Z,6.00
2019-03-10T06:27:57.653Z,6.00
2019-03-10T06:30:26.035Z,6.00
2019-03-10T06:32:54.516Z,6.10
2019-03-10T06:35:23.001Z,6.10
2019-03-10T06:37:51.393Z,6.10
2019-03-10T06:40:19.858Z,6.10
2019-03-10T06:42:48.190Z,6.10
2019-03-10T06:45:16.604Z,6.10
2019-03-10T06:47:45.083Z,6.20
2019-03-10T06:50:13.757Z,6.30
2019-03-10T06:52:42.179Z,6.40
2019-03-10T06:55:10.606Z,6.40
2019-03-10T06:57:38.982Z,6.50
2019-03-10T07:00:10.747Z,6.50
2019-03-10T07:02:39.246Z,6.50
2019-03-10T07:05:10.351Z,6.50
2019-03-10T07:07:38.767Z,6.50
2019-03-10T07:10:15.195Z,6.60
2019-03-10T07:12:43.537Z,6.70
2019-03-10T07:15:13.141Z,6.80
2019-03-10T07:17:41.727Z,6.90
2019-03-10T07:20:18.674Z,6.90
2019-03-10T07:22:47.135Z,7.00
2019-03-10T07:25:15.638Z,7.00
2019-03-10T07:27:51.554Z,7.00
2019-03-10T07:30:27.028Z,7.10
2019-03-10T07:32:57.111Z,7.20
2019-03-10T07:35:27.235Z,7.20
2019-03-10T07:37:57.245Z,7.30
2019-03-10T07:40:44.061Z,7.20
2019-03-10T07:43:16.961Z,7.30
2019-03-10T07:45:47.170Z,7.30
2019-03-10T07:48:29.239Z,7.40
2019-03-10T07:51:10.826Z,7.40
2019-03-10T07:53:50.189Z,7.40
2019-03-10T07:56:32.629Z,7.40
2019-03-10T07:59:02.717Z,7.50
2019-03-10T08:01:49.167Z,7.50
2019-03-10T08:04:22.187Z,7.60
2019-03-10T08:06:58.319Z,7.60
2019-03-10T08:09:31.202Z,7.70
2019-03-10T08:12:01.519Z,7.70
2019-03-10T08:14:31.006Z,7.80
2019-03-10T08:17:01.264Z,7.80
2019-03-10T08:19:39.851Z,7.80
2019-03-10T08:24:34.762Z,7.90
2019-03-10T08:27:05.055Z,8.00
2019-03-10T08:29:46.793Z,8.10
2019-03-10T08:32:29.924Z,8.10
2019-03-10T08:35:08.939Z,8.10
2019-03-10T08:37:39.330Z,8.20
2019-03-10T08:40:22.498Z,8.20
2019-03-10T08:43:08.989Z,8.30
2019-03-10T08:45:39.073Z,8.20
2019-03-10T08:48:27.246Z,8.20
2019-03-10T08:51:07.249Z,8.30
2019-03-10T08:53:37.424Z,8.30
2019-03-10T08:56:06.774Z,8.40
2019-03-10T08:59:01.794Z,8.50
2019-03-10T09:01:48.225Z,8.50
2019-03-10T09:04:36.389Z,8.50
2019-03-10T09:07:18.338Z,8.60
2019-03-10T09:09:57.832Z,8.70
2019-03-10T09:12:28.028Z,8.70
2019-03-10T09:15:06.824Z,8.80
2019-03-10T09:17:40.036Z,8.90
2019-03-10T09:20:10.575Z,8.90
2019-03-10T09:22:50.117Z,8.90
2019-03-10T09:25:36.529Z,9.00
2019-03-10T09:28:06.742Z,9.10
2019-03-10T09:30:45.748Z,9.00
2019-03-10T09:33:27.464Z,9.10
2019-03-10T09:35:57.541Z,9.00
2019-03-10T09:38:32.618Z,9.00
2019-03-10T09:41:21.892Z,9.10
2019-03-10T09:44:07.314Z,9.10
2019-03-10T09:46:37.407Z,9.10
2019-03-10T09:49:24.239Z,9.10
2019-03-10T09:52:12.440Z,9.10
2019-03-10T09:54:54.605Z,9.20
2019-03-10T09:57:24.816Z,9.30
2019-03-10T09:59:54.162Z,9.30
2019-03-10T10:02:24.165Z,9.40
2019-03-10T10:05:02.916Z,9.30
2019-03-10T10:07:48.005Z,9.30
2019-03-10T10:10:24.312Z,9.40
2019-03-10T10:12:54.355Z,9.50
2019-03-10T10:15:24.431Z,9.60
2019-03-10T10:18:00.452Z,9.60
2019-03-10T10:20:47.371Z,9.70
2019-03-10T10:23:35.413Z,9.60
2019-03-10T10:26:08.045Z,9.60
2019-03-10T10:28:47.349Z,9.60
2019-03-10T10:31:20.123Z,9.60
2019-03-10T10:33:59.423Z,9.60
2019-03-10T10:36:45.649Z,9.60
2019-03-10T10:39:22.139Z,9.50
2019-03-10T10:41:55.410Z,9.50
2019-03-10T10:44:28.367Z,9.50
2019-03-10T10:46:58.536Z,9.50
2019-03-10T10:49:40.510Z,9.50
2019-03-10T10:52:16.709Z,9.60
2019-03-10T10:54:49.768Z,9.60
2019-03-10T10:57:22.902Z,9.60
2019-03-10T10:59:55.886Z,9.70
2019-03-10T11:02:45.461Z,9.70
2019-03-10T11:05:24.665Z,9.80
2019-03-10T11:08:01.118Z,9.80
2019-03-10T11:10:37.375Z,9.80
2019-03-10T11:13:18.140Z,9.80
2019-03-10T11:15:50.859Z,9.70
2019-03-10T11:18:37.466Z,9.60
2019-03-10T11:21:10.296Z,9.40
2019-03-10T11:23:46.120Z,9.30
2019-03-10T11:26:16.242Z,9.20
2019-03-10T11:29:03.962Z,9.10
2019-03-10T11:31:40.110Z,9.10
2019-03-10T11:34:12.916Z,9.00
2019-03-10T11:36:43.011Z,9.00
2019-03-10T11:39:15.689Z,9.00
2019-03-10T11:41:48.926Z,9.10
2019-03-10T11:44:28.194Z,9.10
2019-03-10T11:46:58.345Z,9.20
2019-03-10T11:49:29.966Z,9.20
2019-03-10T11:52:03.085Z,9.20
2019-03-10T11:54:39.400Z,9.20
2019-03-10T11:57:12.557Z,9.20
2019-03-10T11:59:45.356Z,9.20
2019-03-10T12:02:31.923Z,9.10
2019-03-10T12:05:13.974Z,9.00
2019-03-10T12:07:46.767Z,9.00
2019-03-10T12:10:15.463Z,8.90
2019-03-10T12:12:44.190Z,8.90
2019-03-10T12:15:14.023Z,8.90
2019-03-10T12:17:49.075Z,8.90
2019-03-10T12:20:17.524Z,8.90
2019-03-10T12:22:46.128Z,8.90
2019-03-10T12:25:14.499Z,8.90
2019-03-10T12:27:43.062Z,9.00
2019-03-10T12:30:13.572Z,9.00
2019-03-10T12:32:43.752Z,9.10
2019-03-10T12:35:12.277Z,9.10
2019-03-10T12:37:40.786Z,9.00
2019-03-10T12:40:12.677Z,9.00
2019-03-10T12:42:41.169Z,9.00
2019-03-10T12:45:10.953Z,9.00
2019-03-10T12:47:39.448Z,9.10
2019-03-10T12:50:12.927Z,9.20
2019-03-10T12:52:41.462Z,9.30
2019-03-10T12:55:10.367Z,9.30
2019-03-10T12:57:38.982Z,9.30
2019-03-10T13:00:13.287Z,9.30
2019-03-10T13:02:41.075Z,9.30
2019-03-10T13:05:10.200Z,9.20
2019-03-10T13:07:38.708Z,9.20
2019-03-10T13:10:07.071Z,9.30
2019-03-10T13:12:35.663Z,9.30
2019-03-10T13:15:05.968Z,9.30
2019-03-10T13:17:33.789Z,9.30
2019-03-10T13:20:02.398Z,9.30
2019-03-10T13:22:30.936Z,9.20
2019-03-10T13:25:01.167Z,9.10
2019-03-10T13:27:29.189Z,9.00
2019-03-10T13:29:58.061Z,8.80
2019-03-10T13:32:26.784Z,8.70
2019-03-10T13:34:55.433Z,8.60
2019-03-10T13:37:23.998Z,8.60
2019-03-10T13:39:52.469Z,8.50
2019-03-10T13:42:21.080Z,8.40
2019-03-10T13:44:49.534Z,8.30
2019-03-10T13:47:18.038Z,8.30
2019-03-10T13:49:46.644Z,8.30
2019-03-10T13:52:15.243Z,8.20
2019-03-10T13:54:43.873Z,8.20
2019-03-10T13:57:14.017Z,8.10
2019-03-10T13:59:42.685Z,8.10
2019-03-10T14:02:11.087Z,8.10
2019-03-10T14:04:39.747Z,8.10
2019-03-10T14:07:08.175Z,8.20
2019-03-10T14:09:36.822Z,8.30
2019-03-10T14:12:05.419Z,8.30
2019-03-10T14:14:33.773Z,8.40
2019-03-10T14:17:02.183Z,8.40
2019-03-10T14:19:30.577Z,8.40
2019-03-10T14:21:59.128Z,8.50
2019-03-10T14:24:27.540Z,8.50
2019-03-10T14:26:56.009Z,8.50
2019-03-10T14:29:24.742Z,8.50
2019-03-10T14:31:53.540Z,8.50
2019-03-10T14:34:22.060Z,8.60
2019-03-10T14:36:50.611Z,8.70
2019-03-10T14:39:19.308Z,8.60
2019-03-10T14:41:47.774Z,8.70
2019-03-10T14:44:16.338Z,8.90
2019-03-10T14:46:46.855Z,8.90
2019-03-10T14:49:23.077Z,8.90
2019-03-10T14:51:47.195Z,9.00
2019-03-10T14:54:15.679Z,8.90
2019-03-10T14:56:44.235Z,8.90
2019-03-10T14:59:12.699Z,8.90
2019-03-10T15:01:41.235Z,8.90
2019-03-10T15:04:09.760Z,8.80
2019-03-10T15:06:38.649Z,8.80
2019-03-10T15:09:08.087Z,8.70
2019-03-10T15:11:36.541Z,8.60
2019-03-10T15:14:05.406Z,8.60
2019-03-10T15:16:34.096Z,8.60
2019-03-10T15:19:02.713Z,8.60
2019-03-10T15:21:31.262Z,8.50
2019-03-10T15:23:59.864Z,8.60
2019-03-10T15:26:28.325Z,8.50
2019-03-10T15:28:56.789Z,8.50
2019-03-10T15:31:25.234Z,8.50
2019-03-10T15:33:53.722Z,8.50
2019-03-10T15:36:22.427Z,8.50
2019-03-10T15:38:50.942Z,8.50
2019-03-10T15:41:19.444Z,8.50
2019-03-10T15:43:47.801Z,8.50
2019-03-10T15:46:16.230Z,8.50
2019-03-10T15:48:44.797Z,8.50
2019-03-10T15:51:13.217Z,8.50
2019-03-10T15:53:41.707Z,8.50
2019-03-10T15:56:10.140Z,8.40
2019-03-10T15:58:38.738Z,8.40
2019-03-10T16:01:07.375Z,8.40
2019-03-10T16:03:35.885Z,8.40
2019-03-10T16:06:04.310Z,8.40
2019-03-10T16:08:32.765Z,8.40
2019-03-10T16:11:01.207Z,8.40
2019-03-10T16:13:29.642Z,8.30
2019-03-10T16:15:58.156Z,8.20
2019-03-10T16:18:26.490Z,8.20
2019-03-10T16:20:54.922Z,8.20
2019-03-10T16:23:23.437Z,8.20
2019-03-10T16:25:51.923Z,8.10
2019-03-10T16:28:20.491Z,8.10
2019-03-10T16:30:48.994Z,8.10
2019-03-10T16:33:17.487Z,8.00
2019-03-10T16:35:45.936Z,8.00
2019-03-10T16:38:14.412Z,8.00
2019-03-10T16:40:43.030Z,8.00
2019-03-10T16:43:11.472Z,8.00
2019-03-10T16:45:39.871Z,7.90
2019-03-10T16:48:08.298Z,7.90
2019-03-10T16:50:36.733Z,7.90
2019-03-10T16:53:05.188Z,7.90
2019-03-10T16:55:33.699Z,7.80
2019-03-10T16:58:02.089Z,7.80
2019-03-10T17:00:30.706Z,7.80
2019-03-10T17:02:59.154Z,7.70
2019-03-10T17:05:29.167Z,7.70
2019-03-10T17:07:57.853Z,7.60
2019-03-10T17:10:27.298Z,7.60
2019-03-10T17:12:57.439Z,7.50
2019-03-10T17:15:26.205Z,7.50
2019-03-10T17:17:54.783Z,7.40
2019-03-10T17:20:23.262Z,7.40
2019-03-10T17:22:51.791Z,7.30
2019-03-10T17:25:20.198Z,7.30
2019-03-10T17:27:48.794Z,7.20
2019-03-10T17:30:25.251Z,7.20
2019-03-10T17:32:53.932Z,7.10
2019-03-10T17:35:22.402Z,7.10
2019-03-10T17:37:52.507Z,7.10
2019-03-10T17:40:23.352Z,7.10
2019-03-10T17:42:51.930Z,7.10
2019-03-10T17:45:21.461Z,7.10
2019-03-10T17:47:50.049Z,7.10
2019-03-10T17:50:19.114Z,7.10
2019-03-10T17:52:48.030Z,7.10
2019-03-10T17:55:20.746Z,7.10
2019-03-10T17:57:49.142Z,7.00
2019-03-10T18:00:20.086Z,7.00
2019-03-10T18:02:48.509Z,6.90
2019-03-10T18:05:16.990Z,6.80
2019-03-10T18:07:45.483Z,6.70
2019-03-10T18:10:16.234Z,6.60
2019-03-10T18:12:44.634Z,6.50
2019-03-10T18:15:14.225Z,6.50
2019-03-10T18:17:42.727Z,6.40
2019-03-10T18:20:17.012Z,6.40
2019-03-10T18:22:45.463Z,6.40
2019-03-10T18:25:14.558Z,6.30
2019-03-10T18:27:43.145Z,6.20
2019-03-10T18:30:22.956Z,6.10
2019-03-10T18:32:53.929Z,6.00
2019-03-10T18:35:22.379Z,5.80
2019-03-10T18:37:50.774Z,5.70
2019-03-10T18:40:20.732Z,5.60
2019-03-10T18:42:49.219Z,5.50
2019-03-10T18:45:18.714Z,5.40
2019-03-10T18:47:47.324Z,5.30
2019-03-10T18:50:21.673Z,5.20
2019-03-10T18:52:50.521Z,5.00
2019-03-10T18:55:19.290Z,5.00
2019-03-10T18:57:47.750Z,5.00
2019-03-10T19:00:29.118Z,4.90
2019-03-10T19:02:57.583Z,4.80
2019-03-10T19:05:26.218Z,4.80
2019-03-10T19:07:54.956Z,4.80
2019-03-10T19:10:23.583Z,4.80
2019-03-10T19:12:51.979Z,4.70
2019-03-10T19:15:27.815Z,4.50
2019-03-10T19:17:56.254Z,4.40
2019-03-10T19:20:24.613Z,4.20
2019-03-10T19:22:53.048Z,4.10
2019-03-10T19:25:21.501Z,4.00
2019-03-10T19:27:49.982Z,4.00
2019-03-10T19:30:22.085Z,3.90
2019-03-10T19:32:50.521Z,3.80
2019-03-10T19:35:18.939Z,3.60
2019-03-10T19:37:50.357Z,3.50
2019-03-10T19:40:21.066Z,3.50
2019-03-10T19:42:52.592Z,3.30
2019-03-10T19:45:23.429Z,3.30
2019-03-10T19:47:51.805Z,3.30
2019-03-10T19:50:23.439Z,3.30
2019-03-10T19:52:52.361Z,3.30
2019-03-10T19:55:20.970Z,3.30
2019-03-10T19:57:52.278Z,3.20
2019-03-10T20:00:21.514Z,3.10
2019-03-10T20:02:49.891Z,3.10
2019-03-10T20:05:18.362Z,3.00
2019-03-10T20:07:46.807Z,2.90
2019-03-10T20:10:19.611Z,2.90
2019-03-10T20:12:48.017Z,2.80
2019-03-10T20:15:20.733Z,2.80
2019-03-10T20:17:49.227Z,2.70
2019-03-10T20:20:19.800Z,2.60
2019-03-10T20:22:48.237Z,2.60
2019-03-10T20:25:16.697Z,2.50
2019-03-10T20:27:45.168Z,2.50
2019-03-10T20:30:21.857Z,2.50
2019-03-10T20:32:51.903Z,2.60
2019-03-10T20:35:20.312Z,2.50
2019-03-10T20:37:48.753Z,2.40
2019-03-10T20:40:19.468Z,2.30
2019-03-10T20:42:48.046Z,2.30
2019-03-10T20:45:16.462Z,2.40
2019-03-10T20:47:45.082Z,2.30
2019-03-10T20:50:15.410Z,2.40
2019-03-10T20:52:43.837Z,2.50
2019-03-10T20:55:13.141Z,2.50
2019-03-10T20:57:41.510Z,2.50
2019-03-10T21:00:12.989Z,2.60
2019-03-10T21:02:41.438Z,2.60
2019-03-10T21:05:11.186Z,2.60
2019-03-10T21:07:39.683Z,2.60
2019-03-10T21:10:23.899Z,2.70
2019-03-10T21:12:52.314Z,2.70
2019-03-10T21:15:26.464Z,2.70
2019-03-10T21:17:55.289Z,2.70
2019-03-10T21:20:24.657Z,2.70
2019-03-10T21:22:53.240Z,2.70
2019-03-10T21:25:23.470Z,2.90
2019-03-10T21:27:51.186Z,2.90
2019-03-10T21:30:21.650Z,3.00
2019-03-10T21:32:52.421Z,2.90
2019-03-10T21:35:20.842Z,2.90
2019-03-10T21:37:50.443Z,3.00
2019-03-10T21:40:24.337Z,3.00
2019-03-10T21:42:52.735Z,3.00
2019-03-10T21:45:21.248Z,3.10
2019-03-10T21:47:49.682Z,3.10
2019-03-10T21:50:18.947Z,3.10
2019-03-10T21:52:47.472Z,3.00
2019-03-10T21:55:17.016Z,3.10
2019-03-10T21:57:45.527Z,3.10
2019-03-10T22:00:16.394Z,3.20
2019-03-10T22:02:44.925Z,3.20
2019-03-10T22:05:14.562Z,3.20
2019-03-10T22:07:42.988Z,3.10
2019-03-10T22:10:26.432Z,3.20
2019-03-10T22:12:46.552Z,3.10
2019-03-10T22:15:17.359Z,3.20
2019-03-10T22:17:45.788Z,3.20
2019-03-10T22:20:15.346Z,3.20
2019-03-10T22:22:49.140Z,3.30
2019-03-10T22:25:13.563Z,3.40
2019-03-10T22:27:42.198Z,3.40
2019-03-10T22:30:19.764Z,3.40
2019-03-10T22:32:48.271Z,3.30
2019-03-10T22:35:16.675Z,3.20
2019-03-10T22:37:45.135Z,3.30
2019-03-10T22:40:15.385Z,3.40
2019-03-10T22:42:43.167Z,3.30
2019-03-10T22:45:19.484Z,3.30
2019-03-10T22:47:47.930Z,3.30
2019-03-10T22:50:17.161Z,3.30
2019-03-10T22:52:46.466Z,3.30
2019-03-10T22:55:15.633Z,3.40
2019-03-10T22:57:44.214Z,3.40
2019-03-10T23:00:31.421Z,3.50
2019-03-10T23:03:00.757Z,3.50
2019-03-10T23:05:29.425Z,3.50
2019-03-10T23:07:58.479Z,3.50
2019-03-10T23:10:26.847Z,3.50
2019-03-10T23:12:55.370Z,3.40
2019-03-10T23:15:23.932Z,3.50
2019-03-10T23:17:58.651Z,3.50
2019-03-10T23:20:27.086Z,3.60
2019-03-10T23:22:55.516Z,3.50
2019-03-10T23:25:23.956Z,3.50
2019-03-10T23:27:52.664Z,3.50
2019-03-10T23:30:21.045Z,3.60
2019-03-10T23:32:49.453Z,3.60
2019-03-10T23:35:17.907Z,3.60
2019-03-10T23:37:46.264Z,3.70
2019-03-10T23:40:15.946Z,3.70
2019-03-10T23:42:44.500Z,3.80
2019-03-10T23:45:19.413Z,3.80
2019-03-10T23:47:48.070Z,3.70
2019-03-10T23:50:18.083Z,3.70
2019-03-10T23:52:46.528Z,3.70
2019-03-10T23:55:14.995Z,3.70
2019-03-10T23:57:43.402Z,3.80
